Time;durP1;ratioP1;P1;durP2;ratioP2;P2;SDS_P1;SDS_P2;PMS_P1;PMS_P2;Temp;Humidity;BMP_temperature;BMP_pressure;BME280_temperature;BME280_humidity;BME280_pressure;Samples;Min_cycle;Max_cycle;Signal;HPM_P1;HPM_P2
2023/07/15 00:01:42;;;;;;;;;5.00;5.00;;;;;24.02;42.23;98956.16;5001473;28;8840;-58
2023/07/15 00:04:10;;;;;;;;;6.80;6.00;;;;;24.05;42.63;98952.16;5013558;28;8866;-59
2023/07/15 00:06:38;;;;;;;;;5.60;5.00;;;;;24.03;42.82;98959.69;5015107;28;8846;-60
2023/07/15 00:09:05;;;;;;;;;6.00;6.00;;;;;24.04;42.21;98943.16;5015549;28;8830;-58
2023/07/15 00:11:33;;;;;;;;;5.00;4.20;;;;;24.08;42.35;98944.34;5014150;28;8837;-58
2023/07/15 00:14:02;;;;;;;;;5.80;5.60;;;;;24.08;42.13;98951.69;5013318;28;8853;-60
2023/07/15 00:16:30;;;;;;;;;6.00;6.00;;;;;24.06;42.20;98949.19;5013317;28;8876;-59
2023/07/15 00:18:59;;;;;;;;;5.80;5.80;;;;;24.04;42.27;98950.50;5014504;28;8980;-58
2023/07/15 00:21:30;;;;;;;;;7.20;6.40;;;;;24.07;42.26;98955.47;5013738;28;8949;-60
2023/07/15 00:23:57;;;;;;;;;5.00;5.00;;;;;24.08;42.27;98949.81;5013372;28;9472;-61
2023/07/15 00:26:25;;;;;;;;;6.40;6.00;;;;;24.11;42.69;98940.34;5013354;28;8952;-60
2023/07/15 00:28:54;;;;;;;;;5.40;5.40;;;;;24.14;42.11;98939.88;5025871;28;8816;-59
2023/07/15 00:31:26;;;;;;;;;5.00;5.00;;;;;24.14;42.66;98937.16;5041119;28;8847;-59
2023/07/15 00:33:56;;;;;;;;;5.00;4.60;;;;;24.14;42.45;98942.59;5039118;28;8832;-59
2023/07/15 00:36:27;;;;;;;;;3.60;2.80;;;;;24.15;42.39;98947.81;5039424;28;8828;-59
2023/07/15 00:38:55;;;;;;;;;5.20;5.00;;;;;24.15;42.29;98938.81;5029328;28;8812;-60
2023/07/15 00:41:23;;;;;;;;;6.40;6.00;;;;;24.15;42.66;98939.66;5033241;28;8847;-61
2023/07/15 00:43:51;;;;;;;;;5.00;5.00;;;;;24.18;42.12;98943.78;5034082;28;8839;-61
2023/07/15 00:46:19;;;;;;;;;5.00;4.60;;;;;24.20;42.56;98944.38;5033937;28;8854;-60
2023/07/15 00:48:46;;;;;;;;;5.00;4.40;;;;;24.20;42.04;98944.38;5033351;28;8855;-60
2023/07/15 00:51:14;;;;;;;;;5.00;5.00;;;;;24.18;42.59;98933.72;5015656;28;8811;-61
2023/07/15 00:53:42;;;;;;;;;6.00;5.60;;;;;24.17;42.20;98950.28;5013282;28;9456;-61
2023/07/15 00:56:10;;;;;;;;;5.60;5.60;;;;;24.15;42.57;98941.53;5013485;28;8891;-60
2023/07/15 00:58:38;;;;;;;;;5.40;5.00;;;;;24.11;42.62;98943.88;5025616;28;8816;-61
2023/07/15 01:01:06;;;;;;;;;5.40;5.40;;;;;24.09;42.53;98950.63;5033083;28;8824;-58
2023/07/15 01:03:34;;;;;;;;;6.00;5.00;;;;;24.07;42.78;98944.59;5019063;28;8806;-59
2023/07/15 01:06:02;;;;;;;;;5.20;5.20;;;;;24.04;42.56;98945.88;5013821;28;8846;-58
2023/07/15 01:08:29;;;;;;;;;5.00;5.00;;;;;24.03;42.89;98946.09;5026227;28;8824;-60
2023/07/15 01:10:57;;;;;;;;;6.00;6.00;;;;;24.02;43.01;98928.13;5029428;28;8816;-59
2023/07/15 01:13:25;;;;;;;;;5.00;4.60;;;;;23.98;42.69;98930.47;5031585;28;8946;-60
2023/07/15 01:15:53;;;;;;;;;5.60;5.00;;;;;23.93;42.88;98937.66;5019208;28;8968;-61
2023/07/15 01:18:20;;;;;;;;;5.00;5.00;;;;;23.89;43.12;98931.06;5032510;28;8832;-61
2023/07/15 01:20:50;;;;;;;;;5.80;5.80;;;;;23.89;43.16;98941.94;5031932;28;8826;-61
2023/07/15 01:23:18;;;;;;;;;5.00;5.00;;;;;23.89;43.18;98944.66;5032229;28;8860;-61
2023/07/15 01:25:46;;;;;;;;;5.00;5.00;;;;;23.86;43.28;98942.38;5032058;28;8860;-61
2023/07/15 01:28:14;;;;;;;;;6.20;6.20;;;;;23.89;42.69;98941.94;5032528;28;8924;-58
2023/07/15 01:30:40;;;;;;;;;5.80;5.00;;;;;23.90;43.06;98938.97;5032316;28;8847;-59
2023/07/15 01:33:08;;;;;;;;;5.00;5.00;;;;;23.89;43.26;98926.44;5032061;28;8938;-60
2023/07/15 01:35:36;;;;;;;;;4.20;4.00;;;;;23.90;43.41;98919.09;5031598;28;8872;-59
2023/07/15 01:38:04;;;;;;;;;3.80;3.80;;;;;23.89;42.99;98926.44;5032192;28;9678;-58
2023/07/15 01:40:32;;;;;;;;;5.00;3.40;;;;;23.90;42.90;98932.72;5031143;28;8848;-59
2023/07/15 01:43:00;;;;;;;;;2.60;2.60;;;;;23.92;42.58;98936.88;5032101;28;8969;-59
2023/07/15 01:45:28;;;;;;;;;2.60;2.60;;;;;23.91;42.97;98934.38;5031235;28;8836;-59
2023/07/15 01:47:55;;;;;;;;;5.00;5.00;;;;;23.89;43.02;98937.31;5032492;28;8820;-59
2023/07/15 01:50:23;;;;;;;;;5.00;5.00;;;;;23.89;42.57;98942.75;5032475;28;8844;-61
2023/07/15 01:52:51;;;;;;;;;4.20;4.20;;;;;23.87;42.96;98935.88;5019369;28;8838;-60
2023/07/15 01:55:19;;;;;;;;;5.20;4.80;;;;;23.89;42.94;98931.06;5024320;28;8870;-59
2023/07/15 01:57:48;;;;;;;;;4.60;4.60;;;;;23.88;42.68;98932.94;5026908;28;8948;-60
2023/07/15 02:00:17;;;;;;;;;5.00;5.00;;;;;23.90;42.77;98935.44;5012972;28;8822;-60
2023/07/15 02:02:45;;;;;;;;;3.20;3.20;;;;;23.86;42.63;98916.03;5012578;28;8852;-59
2023/07/15 02:05:13;;;;;;;;;5.00;5.00;;;;;23.82;42.95;98922.13;5012875;28;8826;-61
2023/07/15 02:07:41;;;;;;;;;5.00;5.00;;;;;23.76;42.77;98921.13;5012876;28;8826;-59
2023/07/15 02:10:08;;;;;;;;;3.20;3.20;;;;;23.69;43.42;98911.41;5011996;28;8822;-60
2023/07/15 02:12:36;;;;;;;;;3.20;3.20;;;;;23.65;43.67;98918.38;5012531;28;8845;-60
2023/07/15 02:15:04;;;;;;;;;5.20;5.20;;;;;23.59;43.34;98919.31;5018048;28;8816;-60
2023/07/15 02:17:32;;;;;;;;;4.40;4.00;;;;;23.53;43.19;98920.22;5030309;28;8943;-60
2023/07/15 02:19:59;;;;;;;;;3.40;3.40;;;;;23.52;43.76;98907.69;5024580;28;8943;-61
2023/07/15 02:22:27;;;;;;;;;5.40;5.00;;;;;23.50;43.60;98910.63;5012308;28;8842;-60
2023/07/15 02:24:55;;;;;;;;;5.00;5.00;;;;;23.50;43.29;98907.06;5012408;28;8893;-60
2023/07/15 02:27:22;;;;;;;;;5.00;3.80;;;;;23.43;43.76;98904.44;5013706;28;8887;-60
2023/07/15 02:29:50;;;;;;;;;3.80;3.80;;;;;23.40;43.89;98906.78;5012712;28;8818;-61
2023/07/15 02:32:18;;;;;;;;;5.00;5.00;;;;;23.35;43.84;98909.34;5012718;28;9472;-61
2023/07/15 02:34:46;;;;;;;;;1.60;1.60;;;;;23.32;44.05;98901.69;5012897;28;8838;-61
2023/07/15 02:37:13;;;;;;;;;5.00;5.00;;;;;23.28;43.91;98903.22;5013806;28;8846;-61
2023/07/15 02:39:41;;;;;;;;;5.00;4.20;;;;;23.29;44.09;98891.28;5015681;28;8948;-60
2023/07/15 02:42:09;;;;;;;;;4.80;4.40;;;;;23.30;43.86;98890.22;5015894;28;8938;-60
2023/07/15 02:44:37;;;;;;;;;4.20;4.20;;;;;23.28;43.78;98889.63;5015063;28;8933;-59
2023/07/15 02:47:04;;;;;;;;;4.80;4.80;;;;;23.28;43.84;98895.06;5015720;28;8832;-59
2023/07/15 02:49:33;;;;;;;;;4.80;4.20;;;;;23.25;43.94;98899.06;5015698;28;8992;-60
2023/07/15 02:52:00;;;;;;;;;5.00;5.00;;;;;23.24;43.57;98894.69;5015825;28;8842;-61
2023/07/15 02:54:28;;;;;;;;;5.40;5.00;;;;;23.24;43.80;98899.28;5015981;28;8868;-59
2023/07/15 02:56:57;;;;;;;;;5.00;4.60;;;;;23.22;43.54;98893.25;5029394;28;8828;-61
2023/07/15 02:59:24;;;;;;;;;4.00;4.00;;;;;23.22;44.13;98890.53;5034174;28;8858;-60
2023/07/15 03:01:52;;;;;;;;;5.00;5.00;;;;;23.25;44.05;98893.63;5014699;28;8860;-58
2023/07/15 03:04:20;;;;;;;;;4.20;4.20;;;;;23.25;43.91;98885.47;5015230;28;8837;-60
2023/07/15 03:06:48;;;;;;;;;4.00;4.00;;;;;23.27;43.81;98883.34;5015300;28;8814;-61
2023/07/15 03:09:16;;;;;;;;;4.60;4.40;;;;;23.26;43.99;98887.13;5014457;28;8871;-61
2023/07/15 03:11:44;;;;;;;;;4.20;4.00;;;;;23.22;43.79;98896.78;5015558;28;8855;-60
2023/07/15 03:14:11;;;;;;;;;4.80;4.00;;;;;23.19;43.61;98894.53;5014323;28;8881;-60
2023/07/15 03:16:39;;;;;;;;;2.40;2.40;;;;;23.16;43.60;98894.16;5028229;28;9473;-58
2023/07/15 03:19:07;;;;;;;;;1.60;1.60;;;;;23.14;44.03;98901.66;5035133;28;8924;-58
2023/07/15 03:21:36;;;;;;;;;5.20;4.40;;;;;23.10;44.04;98886.88;5034598;28;8858;-58
2023/07/15 03:24:05;;;;;;;;;2.40;2.40;;;;;23.07;44.15;98899.00;5034531;28;8974;-58
2023/07/15 03:26:33;;;;;;;;;5.00;5.00;;;;;23.06;44.06;98902.78;5034577;28;8866;-60
2023/07/15 03:29:01;;;;;;;;;4.00;4.00;;;;;23.04;44.50;98898.63;5034093;28;8852;-59
2023/07/15 03:31:29;;;;;;;;;5.00;5.00;;;;;23.05;44.31;98906.56;5035038;28;8840;-60
2023/07/15 03:33:57;;;;;;;;;4.20;4.20;;;;;23.07;44.25;98900.91;5034850;28;8824;-58
2023/07/15 03:36:25;;;;;;;;;5.00;5.00;;;;;23.05;43.96;98909.28;5034700;28;8966;-60
2023/07/15 03:38:53;;;;;;;;;5.60;5.20;;;;;23.03;43.93;98905.97;5034677;28;8946;-60
2023/07/15 03:41:21;;;;;;;;;4.00;4.00;;;;;23.00;44.71;98903.69;5034861;28;8840;-60
2023/07/15 03:43:49;;;;;;;;;5.80;5.00;;;;;23.00;44.26;98897.44;5034687;28;8844;-60
2023/07/15 03:46:16;;;;;;;;;4.60;4.60;;;;;23.00;44.36;98902.88;5034613;28;8854;-61
2023/07/15 03:48:44;;;;;;;;;4.80;4.80;;;;;23.02;44.10;98898.03;5033915;28;8836;-59
2023/07/15 03:51:12;;;;;;;;;4.00;3.20;;;;;23.05;43.91;98903.00;5034487;28;8852;-60
2023/07/15 03:53:40;;;;;;;;;4.80;4.80;;;;;23.04;43.90;98895.91;5034124;28;8836;-59
2023/07/15 03:56:08;;;;;;;;;3.20;3.20;;;;;23.02;43.93;98889.88;5034544;28;8820;-61
2023/07/15 03:58:36;;;;;;;;;5.00;5.00;;;;;23.03;44.30;98894.25;5034724;28;8850;-60
2023/07/15 04:01:03;;;;;;;;;1.20;1.20;;;;;23.02;44.10;98895.31;5034439;28;8928;-60
2023/07/15 04:03:31;;;;;;;;;4.00;4.00;;;;;23.00;44.05;98897.44;5034645;28;8840;-61
2023/07/15 04:05:59;;;;;;;;;3.20;2.80;;;;;22.99;44.32;98901.22;5022734;28;8814;-59
2023/07/15 04:08:27;;;;;;;;;5.00;5.00;;;;;22.98;44.71;98903.09;5014638;28;8834;-60
2023/07/15 04:10:55;;;;;;;;;5.40;5.40;;;;;22.96;44.17;98897.06;5015405;28;8907;-59
2023/07/15 04:13:22;;;;;;;;;3.60;3.60;;;;;22.98;44.34;98899.56;5014552;28;8830;-60
2023/07/15 04:15:50;;;;;;;;;5.00;5.00;;;;;23.01;44.65;98899.09;5014128;28;8861;-60
2023/07/15 04:18:19;;;;;;;;;4.80;4.80;;;;;23.00;44.61;98892.00;5014163;28;8845;-60
2023/07/15 04:20:47;;;;;;;;;4.20;4.20;;;;;23.01;44.04;98890.94;5015271;28;8856;-60
2023/07/15 04:23:15;;;;;;;;;4.80;4.80;;;;;23.01;44.13;98899.94;5014229;28;8978;-60
2023/07/15 04:25:43;;;;;;;;;5.20;5.00;;;;;23.02;44.19;98895.31;5014453;28;8865;-60
2023/07/15 04:28:11;;;;;;;;;2.00;2.00;;;;;23.06;44.49;98901.97;5013920;28;8833;-60
2023/07/15 04:30:39;;;;;;;;;4.80;4.80;;;;;23.09;44.32;98898.78;5014114;28;8857;-59
2023/07/15 04:33:07;;;;;;;;;5.00;4.60;;;;;23.16;44.21;98896.88;5014657;28;8845;-60
2023/07/15 04:35:34;;;;;;;;;4.20;4.00;;;;;23.20;43.83;98900.78;5019994;28;8824;-61
2023/07/15 04:38:02;;;;;;;;;5.40;4.60;;;;;23.22;44.13;98894.06;5031617;28;8852;-60
2023/07/15 04:40:30;;;;;;;;;4.00;4.00;;;;;23.26;43.78;98897.16;5033341;28;8832;-60
2023/07/15 04:42:58;;;;;;;;;4.00;2.00;;;;;23.31;44.07;98891.88;5034519;28;8835;-59
2023/07/15 04:45:26;;;;;;;;;3.20;2.00;;;;;23.35;43.75;98882.19;5033755;28;8816;-59
2023/07/15 04:47:53;;;;;;;;;2.80;2.80;;;;;23.43;43.65;98898.19;5028911;28;8846;-60
2023/07/15 04:50:21;;;;;;;;;5.00;5.00;;;;;23.48;43.98;98901.03;5013623;28;8827;-59
2023/07/15 04:52:48;;;;;;;;;3.40;2.60;;;;;23.53;43.54;98893.03;5030973;28;9486;-61
2023/07/15 04:55:16;;;;;;;;;4.60;4.40;;;;;23.57;43.39;98900.50;5032026;28;8841;-60
2023/07/15 04:57:44;;;;;;;;;4.00;4.00;;;;;23.62;43.49;98894.38;5014831;28;8826;-60
2023/07/15 05:00:13;;;;;;;;;4.00;4.00;;;;;23.66;43.42;98901.03;5015480;28;8831;-61
2023/07/15 05:02:41;;;;;;;;;3.80;3.80;;;;;23.72;43.77;98895.47;5032902;28;8832;-60
2023/07/15 05:05:10;;;;;;;;;4.00;4.00;;;;;23.78;43.56;98896.44;5031360;28;8866;-60
2023/07/15 05:07:38;;;;;;;;;3.40;3.40;;;;;23.84;43.88;98890.06;5016782;28;8820;-61
2023/07/15 05:10:23;;;;;;;;;2.00;2.00;;;;;23.91;43.85;98890.84;5019343;28;8844;-60
2023/07/15 05:12:51;;;;;;;;;5.00;5.00;;;;;23.98;43.43;98877.97;5032807;28;8832;-61
2023/07/15 05:15:19;;;;;;;;;3.80;3.80;;;;;24.03;43.26;98886.25;5031555;28;8802;-60
2023/07/15 05:17:46;;;;;;;;;3.40;3.40;;;;;24.09;43.83;98880.72;5022190;28;9462;-61
2023/07/15 05:20:14;;;;;;;;;2.80;2.40;;;;;24.16;42.99;98881.44;5033491;28;8832;-60
2023/07/15 05:22:42;;;;;;;;;2.60;2.60;;;;;24.24;42.92;98885.69;5033332;28;8939;-60
2023/07/15 05:25:10;;;;;;;;;3.00;3.00;;;;;24.33;42.71;98876.09;5032978;28;8870;-59
2023/07/15 05:27:41;;;;;;;;;5.80;5.00;;;;;24.40;42.83;98869.50;5033179;28;8908;-61
2023/07/15 05:30:09;;;;;;;;;3.00;3.00;;;;;24.48;43.25;98865.56;5033232;28;8832;-61
2023/07/15 05:32:37;;;;;;;;;2.00;2.00;;;;;24.56;42.93;98862.56;5033201;28;8828;-61
2023/07/15 05:35:05;;;;;;;;;3.00;3.00;;;;;24.64;42.71;98870.38;5032691;28;8909;-60
2023/07/15 05:37:33;;;;;;;;;5.00;4.20;;;;;24.73;43.13;98877.09;5032727;28;8862;-60
2023/07/15 05:40:00;;;;;;;;;3.00;3.00;;;;;24.82;42.00;98886.56;5032839;28;8828;-60
2023/07/15 05:42:28;;;;;;;;;3.40;3.40;;;;;24.92;42.56;98884.91;5033039;28;8844;-61
2023/07/15 05:44:56;;;;;;;;;3.40;3.00;;;;;25.01;42.18;98890.78;5032867;28;8839;-61
2023/07/15 05:47:24;;;;;;;;;2.20;1.00;;;;;25.08;42.42;98897.78;5032973;28;8865;-60
2023/07/15 05:49:52;;;;;;;;;2.60;2.60;;;;;25.16;42.11;98888.38;5032713;28;8816;-60
2023/07/15 05:52:19;;;;;;;;;3.40;3.40;;;;;25.23;42.31;98879.06;5032696;28;9536;-59
2023/07/15 05:54:47;;;;;;;;;6.40;6.20;;;;;25.33;42.28;98878.44;5032748;28;8856;-61
2023/07/15 05:57:15;;;;;;;;;5.00;3.40;;;;;25.41;42.01;98884.31;5032257;28;8840;-60
2023/07/15 05:59:43;;;;;;;;;3.00;3.00;;;;;25.51;41.88;98891.88;5032529;28;8832;-60
2023/07/15 06:02:10;;;;;;;;;3.40;3.00;;;;;25.58;41.83;98890.69;5032100;28;8886;-61
2023/07/15 06:04:38;;;;;;;;;3.00;3.00;;;;;25.65;41.70;98891.38;5029748;28;8961;-59
2023/07/15 06:07:07;;;;;;;;;3.80;3.80;;;;;25.72;41.79;98886.56;5012677;28;8922;-60
2023/07/15 06:09:35;;;;;;;;;2.40;2.40;;;;;25.78;41.68;98883.69;5013850;28;8949;-60
2023/07/15 06:12:03;;;;;;;;;3.00;3.00;;;;;25.85;41.28;98875.34;5031689;28;8954;-58
2023/07/15 06:14:31;;;;;;;;;2.60;2.00;;;;;25.94;41.22;98869.28;5035936;28;8845;-61
2023/07/15 06:16:58;;;;;;;;;3.00;2.60;;;;;26.01;41.43;98874.56;5035875;28;8843;-60
2023/07/15 06:19:26;;;;;;;;;3.00;3.00;;;;;26.09;40.95;98872.28;5035851;28;8877;-60
2023/07/15 06:21:54;;;;;;;;;2.00;2.00;;;;;26.18;41.56;98870.78;5033182;28;8841;-60
2023/07/15 06:27:32;;;;;;;;;5.00;5.00;;;;;26.41;40.78;98872.53;5036114;28;8761;-59
2023/07/15 06:30:00;;;;;;;;;4.00;3.80;;;;;26.51;40.93;98870.78;5035039;28;8854;-60
2023/07/15 06:32:28;;;;;;;;;3.00;3.00;;;;;26.63;41.00;98870.72;5035695;28;9525;-60
2023/07/15 06:34:55;;;;;;;;;5.60;4.20;;;;;26.73;40.52;98870.88;5035285;28;8824;-61
2023/07/15 06:37:23;;;;;;;;;3.00;3.00;;;;;26.83;41.14;98879.19;5031394;28;8838;-60
2023/07/15 06:39:50;;;;;;;;;2.20;2.00;;;;;26.90;40.50;98875.22;5016405;28;8810;-60
2023/07/15 06:42:18;;;;;;;;;4.00;4.00;;;;;26.96;40.28;98868.75;5016150;28;8834;-61
2023/07/15 06:44:46;;;;;;;;;3.40;3.40;;;;;27.01;40.14;98868.00;5015469;28;8941;-59
2023/07/15 06:47:13;;;;;;;;;3.80;3.20;;;;;27.08;40.38;98857.69;5015340;28;8830;-60
2023/07/15 06:49:42;;;;;;;;;5.20;5.20;;;;;27.17;40.36;98864.41;5015065;28;8810;-58
2023/07/15 06:52:09;;;;;;;;;3.00;3.00;;;;;27.26;40.06;98871.91;5017173;28;8841;-60
2023/07/15 06:54:37;;;;;;;;;5.60;4.00;;;;;27.36;39.70;98869.28;5034111;28;8820;-61
2023/07/15 06:57:05;;;;;;;;;4.00;3.40;;;;;27.46;40.12;98871.31;5018854;28;8825;-61
2023/07/15 06:59:33;;;;;;;;;3.80;3.00;;;;;27.56;39.74;98866.75;5015336;28;8846;-61
2023/07/15 07:02:01;;;;;;;;;4.00;4.00;;;;;27.64;39.92;98876.44;5015321;28;8826;-60
2023/07/15 07:04:28;;;;;;;;;4.00;4.00;;;;;27.69;39.47;98882.78;5015544;28;8842;-59
2023/07/15 07:06:56;;;;;;;;;6.00;6.00;;;;;27.75;40.13;98883.66;5016020;28;8915;-59
2023/07/15 07:09:24;;;;;;;;;3.00;2.80;;;;;27.83;39.76;98884.06;5015700;28;8942;-61
2023/07/15 07:11:52;;;;;;;;;2.60;2.60;;;;;27.90;39.34;98898.38;5027036;28;8831;-61
2023/07/15 07:14:20;;;;;;;;;4.00;4.00;;;;;28.01;39.77;98904.78;5033906;28;8866;-59
2023/07/15 07:16:48;;;;;;;;;2.80;2.80;;;;;28.16;38.93;98886.56;5020923;28;8834;-60
2023/07/15 07:19:15;;;;;;;;;3.00;3.00;;;;;28.24;39.03;98888.03;5033853;28;8835;-61
2023/07/15 07:21:44;;;;;;;;;3.20;3.20;;;;;28.25;38.94;98878.72;5034055;28;9045;-61
2023/07/15 07:24:11;;;;;;;;;4.00;4.00;;;;;28.28;38.86;98875.44;5032232;28;8875;-60
2023/07/15 07:26:39;;;;;;;;;4.00;3.20;;;;;28.36;38.75;98881.31;5034045;28;8895;-60
2023/07/15 07:29:07;;;;;;;;;4.00;4.00;;;;;28.51;38.40;98877.88;5034910;28;9549;-61
2023/07/15 07:31:35;;;;;;;;;3.00;3.00;;;;;28.65;38.42;98873.56;5034657;28;8830;-60
2023/07/15 07:34:03;;;;;;;;;3.00;3.00;;;;;28.67;38.95;98882.38;5034387;28;8917;-61
2023/07/15 07:36:31;;;;;;;;;3.00;3.00;;;;;28.75;38.45;98890.91;5034852;28;9021;-61
2023/07/15 07:38:58;;;;;;;;;3.00;2.60;;;;;28.88;38.34;98882.22;5034423;28;8824;-61
2023/07/15 07:41:26;;;;;;;;;3.00;2.60;;;;;28.98;38.48;98881.50;5034367;28;8920;-61
2023/07/15 07:43:54;;;;;;;;;4.00;2.80;;;;;28.98;38.44;98890.53;5034875;28;8843;-61
2023/07/15 07:46:22;;;;;;;;;4.40;4.40;;;;;28.90;38.80;98906.66;5033847;28;8820;-61
2023/07/15 07:48:50;;;;;;;;;3.00;2.40;;;;;28.72;38.39;98907.91;5033094;28;8852;-61
2023/07/15 07:51:18;;;;;;;;;4.00;3.00;;;;;28.60;38.54;98909.19;5033800;28;8851;-61
2023/07/15 07:53:45;;;;;;;;;2.20;2.20;;;;;28.47;38.85;98899.50;5033413;28;9497;-60
2023/07/15 07:56:15;;;;;;;;;3.60;3.60;;;;;28.38;39.03;98900.22;5033366;28;8955;-60
2023/07/15 07:58:43;;;;;;;;;3.80;3.40;;;;;28.33;39.33;98917.44;5034175;28;8970;-60
2023/07/15 08:01:12;;;;;;;;;3.00;3.00;;;;;28.22;39.66;98896.50;5033219;28;8982;-60
2023/07/15 08:03:41;;;;;;;;;2.20;2.20;;;;;28.13;39.64;98913.69;5022768;28;8836;-60
2023/07/15 08:06:09;;;;;;;;;2.00;2.00;;;;;28.01;39.62;98911.06;5013132;28;8842;-59
2023/07/15 08:08:37;;;;;;;;;4.00;3.60;;;;;27.92;39.71;98923.56;5013556;28;8914;-60
2023/07/15 08:11:04;;;;;;;;;3.00;2.40;;;;;27.84;40.18;98921.31;5016859;28;8835;-61
2023/07/15 08:13:32;;;;;;;;;0.40;0.40;;;;;27.75;40.67;98928.31;5023272;28;8822;-61
2023/07/15 08:16:00;;;;;;;;;3.00;3.00;;;;;27.70;39.95;98941.09;5013538;28;8842;-60
2023/07/15 08:18:28;;;;;;;;;3.00;3.00;;;;;27.65;40.56;98949.25;5020165;28;8868;-61
2023/07/15 08:20:56;;;;;;;;;2.00;2.00;;;;;27.66;40.67;98939.94;5033101;28;8832;-60
2023/07/15 08:23:24;;;;;;;;;2.00;2.00;;;;;27.70;39.98;98933.69;5032445;28;8836;-59
2023/07/15 08:25:52;;;;;;;;;3.80;3.80;;;;;27.71;40.16;98927.13;5033097;28;8816;-61
2023/07/15 08:28:20;;;;;;;;;4.00;3.60;;;;;27.66;40.88;98940.78;5029104;28;8862;-61
2023/07/15 08:30:48;;;;;;;;;3.60;3.60;;;;;27.61;40.37;98957.13;5012891;28;8949;-61
2023/07/15 08:33:16;;;;;;;;;4.00;3.00;;;;;27.55;41.19;98962.81;5013961;28;8842;-61
2023/07/15 08:35:45;;;;;;;;;3.80;3.80;;;;;27.48;40.67;98973.13;5013029;28;8831;-61
2023/07/15 08:38:13;;;;;;;;;4.80;4.80;;;;;27.40;40.70;98990.78;5013740;28;8834;-59
2023/07/15 08:40:41;;;;;;;;;2.40;2.00;;;;;27.31;41.40;98975.88;5014487;28;9534;-59
2023/07/15 08:43:09;;;;;;;;;4.40;3.80;;;;;27.21;41.49;98962.09;5017797;28;8836;-59
2023/07/15 08:45:37;;;;;;;;;4.40;4.40;;;;;27.14;41.32;98966.91;5031285;28;9506;-59
2023/07/15 08:48:06;;;;;;;;;4.00;4.00;;;;;27.08;41.33;98973.34;5032398;28;8835;-59
2023/07/15 08:50:34;;;;;;;;;3.00;3.00;;;;;26.99;41.54;98983.06;5032592;28;8868;-58
2023/07/15 08:53:02;;;;;;;;;4.00;4.00;;;;;26.88;41.89;98980.41;5032882;28;8832;-59
2023/07/15 08:55:29;;;;;;;;;4.00;4.00;;;;;26.73;42.33;98994.66;5018678;28;8818;-58
2023/07/15 08:57:57;;;;;;;;;4.00;4.00;;;;;26.61;42.49;98999.38;5014547;28;8961;-58
2023/07/15 09:00:25;;;;;;;;;4.80;4.20;;;;;26.46;43.02;99020.94;5029860;28;8858;-58
2023/07/15 09:02:53;;;;;;;;;3.80;3.80;;;;;26.33;43.96;99018.50;5030322;28;8904;-59
2023/07/15 09:05:21;;;;;;;;;4.00;3.00;;;;;26.21;44.01;99017.75;5011856;28;8861;-59
2023/07/15 09:07:49;;;;;;;;;6.20;5.20;;;;;26.08;44.11;99028.97;5027787;28;8834;-60
2023/07/15 09:10:17;;;;;;;;;3.00;3.00;;;;;25.96;44.94;99036.34;5029848;28;8836;-60
2023/07/15 09:12:45;;;;;;;;;5.40;5.40;;;;;25.87;45.01;99048.69;5024887;28;8818;-61
2023/07/15 09:15:13;;;;;;;;;3.00;3.00;;;;;25.74;45.40;99059.06;5029919;28;8824;-59
2023/07/15 09:17:41;;;;;;;;;4.20;3.00;;;;;25.55;46.00;99051.25;5019885;28;8830;-58
2023/07/15 09:20:09;;;;;;;;;2.40;2.40;;;;;25.39;46.30;99044.63;5033129;28;9485;-59
2023/07/15 09:22:37;;;;;;;;;5.00;5.00;;;;;25.19;47.28;99057.75;5033517;28;8844;-59
2023/07/15 09:25:05;;;;;;;;;7.80;7.00;;;;;24.48;49.07;99081.53;5033059;28;8940;-60
2023/07/15 09:27:33;;;;;;;;;5.80;5.00;;;;;23.55;51.20;99087.50;5033440;28;8950;-61
2023/07/15 09:30:01;;;;;;;;;4.60;3.40;;;;;22.75;54.24;99103.00;5032887;28;8840;-59
2023/07/15 09:32:29;;;;;;;;;4.20;4.20;;;;;22.09;56.16;99121.53;5032056;28;8843;-59
2023/07/15 09:34:57;;;;;;;;;8.00;8.00;;;;;21.63;57.21;99133.56;5032549;28;8863;-59
2023/07/15 09:37:25;;;;;;;;;6.00;5.20;;;;;21.31;58.40;99147.97;5032473;28;8855;-59
2023/07/15 09:39:52;;;;;;;;;4.80;4.80;;;;;21.04;60.08;99135.50;5032639;28;8832;-60
2023/07/15 09:42:20;;;;;;;;;5.80;5.80;;;;;20.82;60.22;99126.69;5032387;28;8954;-59
2023/07/15 09:44:48;;;;;;;;;8.00;7.00;;;;;20.67;61.14;99133.34;5032604;28;8843;-59
2023/07/15 09:47:17;;;;;;;;;2.00;2.00;;;;;20.55;61.87;99156.63;5031134;28;8832;-60
2023/07/15 09:49:46;;;;;;;;;7.00;5.00;;;;;20.47;62.24;99145.97;5031829;28;8812;-58
2023/07/15 09:52:13;;;;;;;;;4.20;4.20;;;;;20.45;62.53;99148.06;5031752;28;8930;-60
2023/07/15 09:54:41;;;;;;;;;4.00;4.00;;;;;20.44;62.70;99162.63;5032284;28;8955;-59
2023/07/15 09:57:09;;;;;;;;;4.20;4.00;;;;;20.43;62.98;99179.91;5031989;28;8844;-59
2023/07/15 09:59:37;;;;;;;;;5.60;4.80;;;;;20.42;63.62;99167.41;5032472;28;9522;-60
2023/07/15 10:02:06;;;;;;;;;5.00;5.00;;;;;20.38;64.30;99171.56;5032264;28;8832;-59
2023/07/15 10:04:35;;;;;;;;;2.40;2.40;;;;;20.32;64.55;99177.75;5017603;28;8888;-59
2023/07/15 10:07:03;;;;;;;;;4.00;4.00;;;;;20.26;64.43;99177.75;5012502;28;9511;-58
2023/07/15 10:09:31;;;;;;;;;4.00;3.20;;;;;20.21;65.42;99167.53;5013698;28;8861;-59
2023/07/15 10:11:59;;;;;;;;;4.00;4.00;;;;;20.17;66.40;99155.44;5012440;28;8837;-59
2023/07/15 10:14:30;;;;;;;;;7.00;5.00;;;;;20.14;66.40;99163.97;5012560;28;8876;-58
2023/07/15 10:16:58;;;;;;;;;2.00;2.00;;;;;20.12;66.60;99152.53;5028944;28;8985;-59
2023/07/15 10:19:26;;;;;;;;;4.00;4.00;;;;;20.12;66.58;99128.19;5032024;28;8844;-59
2023/07/15 10:21:53;;;;;;;;;4.40;4.40;;;;;20.12;66.62;99117.38;5029631;28;8824;-59
2023/07/15 10:24:21;;;;;;;;;5.80;4.20;;;;;20.17;66.48;99104.06;5031551;28;8843;-59
2023/07/15 10:26:50;;;;;;;;;5.00;4.00;;;;;20.20;66.13;99103.69;5031627;28;8843;-58
2023/07/15 10:29:18;;;;;;;;;5.00;4.80;;;;;20.21;66.15;99091.81;5031854;28;8828;-58
2023/07/15 10:31:46;;;;;;;;;4.60;4.00;;;;;20.24;66.68;99104.13;5020488;28;8818;-58
2023/07/15 10:34:14;;;;;;;;;4.60;4.60;;;;;20.28;66.12;99095.38;5012005;28;8846;-58
2023/07/15 10:36:44;;;;;;;;;4.80;4.00;;;;;20.37;66.03;99068.97;5024546;28;8920;-58
2023/07/15 10:39:13;;;;;;;;;4.00;2.00;;;;;20.47;66.00;99070.22;5028927;28;8854;-59
2023/07/15 10:41:41;;;;;;;;;2.00;2.00;;;;;20.58;65.14;99037.16;5030265;28;8838;-58
2023/07/15 10:44:09;;;;;;;;;5.00;4.60;;;;;20.67;65.26;99042.16;5031001;28;8835;-58
2023/07/15 10:46:37;;;;;;;;;2.80;2.80;;;;;20.73;65.56;99059.44;5016195;28;8931;-59
2023/07/15 10:49:07;;;;;;;;;4.00;4.00;;;;;20.77;65.29;99060.69;5028121;28;8952;-58
2023/07/15 10:51:35;;;;;;;;;4.20;4.00;;;;;20.84;65.13;99050.69;5028739;28;8820;-58
2023/07/15 10:54:03;;;;;;;;;4.00;4.00;;;;;20.98;64.56;99055.09;5030802;28;8924;-58
2023/07/15 10:56:31;;;;;;;;;3.20;3.20;;;;;21.13;64.70;99053.84;5026530;28;8854;-58
2023/07/15 10:58:59;;;;;;;;;3.60;3.60;;;;;21.31;64.21;99045.03;5032755;28;9533;-58
2023/07/15 11:01:27;;;;;;;;;5.20;5.20;;;;;21.53;64.17;99032.88;5024198;28;8844;-58
2023/07/15 11:03:55;;;;;;;;;7.40;6.60;;;;;21.70;63.61;99034.13;5015969;28;8810;-58
2023/07/15 11:06:23;;;;;;;;;5.00;4.00;;;;;21.83;63.66;99039.47;5024617;28;8841;-58
2023/07/15 11:08:51;;;;;;;;;5.00;4.20;;;;;21.97;63.64;99030.22;5034960;28;8878;-58
2023/07/15 11:11:19;;;;;;;;;4.00;4.00;;;;;22.05;63.82;99038.94;5032956;28;8824;-58
2023/07/15 11:13:47;;;;;;;;;4.20;4.00;;;;;22.08;63.36;99034.97;5034150;28;8820;-59
2023/07/15 11:16:16;;;;;;;;;4.00;4.00;;;;;22.11;63.42;99029.94;5029774;28;8822;-58
2023/07/15 11:18:44;;;;;;;;;5.60;4.60;;;;;22.16;63.67;99032.00;5026757;28;9462;-58
2023/07/15 11:21:12;;;;;;;;;1.80;1.80;;;;;22.21;63.41;99033.00;5034182;28;8856;-58
2023/07/15 11:23:40;;;;;;;;;5.80;5.40;;;;;22.27;64.11;99037.56;5033786;28;9505;-59
2023/07/15 11:26:09;;;;;;;;;4.00;4.00;;;;;22.34;63.85;99045.66;5034524;28;8859;-58
2023/07/15 11:28:37;;;;;;;;;1.80;1.80;;;;;22.45;63.59;99042.25;5033892;28;8836;-58
2023/07/15 11:31:06;;;;;;;;;4.80;4.40;;;;;22.56;63.31;99025.28;5034235;28;8824;-60
2023/07/15 11:33:34;;;;;;;;;4.20;4.20;;;;;22.67;63.10;99033.53;5033974;28;8851;-58
2023/07/15 11:36:02;;;;;;;;;2.80;2.80;;;;;22.76;63.33;99010.47;5033556;28;8852;-58
2023/07/15 11:38:30;;;;;;;;;4.00;4.00;;;;;22.81;63.17;98996.22;5033983;28;8963;-59
2023/07/15 11:40:58;;;;;;;;;2.80;2.80;;;;;22.82;63.42;99000.59;5033612;28;8952;-58
2023/07/15 11:43:26;;;;;;;;;4.60;4.60;;;;;22.85;63.29;99003.72;5034178;28;8828;-59
2023/07/15 11:45:54;;;;;;;;;3.60;3.60;;;;;22.91;63.25;98996.56;5034216;28;8865;-59
2023/07/15 11:48:22;;;;;;;;;5.00;4.00;;;;;23.01;63.07;99002.31;5033893;28;8864;-59